createdAt,value
2022-12-10T06:35:41.547Z,40.33
2022-12-10T06:37:46.777Z,40.42
2022-12-10T06:39:52.495Z,39.88
2022-12-10T06:41:59.163Z,39.38
2022-12-10T06:44:03.246Z,39.78
2022-12-10T06:46:13.822Z,42.05
2022-12-10T06:48:17.665Z,42.33
2022-12-10T06:50:21.525Z,41.72
2022-12-10T06:52:25.856Z,39.92
2022-12-10T06:54:30.745Z,39.60
2022-12-10T06:56:35.012Z,36.67
2022-12-10T06:58:41.622Z,34.00
2022-12-10T07:00:46.550Z,33.63
2022-12-10T07:02:51.066Z,33.45
2022-12-10T07:04:55.977Z,34.60
2022-12-10T07:07:00.000Z,36.55
2022-12-10T07:09:04.297Z,35.42
2022-12-10T07:11:10.165Z,34.67
2022-12-10T07:13:14.566Z,36.92
2022-12-10T07:15:18.661Z,39.13
2022-12-10T07:17:22.866Z,46.20
2022-12-10T07:19:27.845Z,46.78
2022-12-10T07:21:36.619Z,49.58
2022-12-10T07:23:41.556Z,45.97
2022-12-10T07:25:46.068Z,45.05
2022-12-10T07:27:51.698Z,47.38
2022-12-10T07:29:59.866Z,43.65
2022-12-10T07:32:05.137Z,41.05
2022-12-10T07:34:09.056Z,37.45
2022-12-10T07:36:15.578Z,32.53
2022-12-10T07:38:20.197Z,35.22
2022-12-10T07:40:27.606Z,34.78
2022-12-10T07:42:31.945Z,36.40
2022-12-10T07:44:35.646Z,39.22
2022-12-10T07:46:41.564Z,40.63
2022-12-10T07:48:46.476Z,41.72
2022-12-10T07:50:58.914Z,38.20
2022-12-10T07:53:04.032Z,37.28
2022-12-10T07:55:08.615Z,40.03
2022-12-10T07:57:12.306Z,39.55
2022-12-10T07:59:17.616Z,39.80
2022-12-10T08:01:25.587Z,40.08
2022-12-10T08:03:29.805Z,40.47
2022-12-10T08:05:33.566Z,40.85
2022-12-10T08:07:37.696Z,39.85
2022-12-10T08:09:41.958Z,37.85
2022-12-10T08:11:46.205Z,38.25
2022-12-10T08:13:56.564Z,33.35
2022-12-10T08:16:21.817Z,36.03
2022-12-10T08:18:25.545Z,36.03
2022-12-10T08:20:29.322Z,36.38
2022-12-10T08:22:33.367Z,34.85
2022-12-10T08:24:37.278Z,32.63
2022-12-10T08:26:41.857Z,32.92
2022-12-10T08:28:45.992Z,33.75
2022-12-10T08:30:52.238Z,34.13
2022-12-10T08:32:56.477Z,31.98
2022-12-10T08:35:00.905Z,30.90
2022-12-10T08:37:10.749Z,33.92
2022-12-10T08:39:20.447Z,30.17
2022-12-10T08:41:25.666Z,33.53
2022-12-10T08:43:30.077Z,34.03
2022-12-10T08:45:34.949Z,34.40
2022-12-10T08:47:39.298Z,34.15
2022-12-10T08:49:43.151Z,32.47
2022-12-10T08:51:45.676Z,45.13
2022-12-10T08:53:48.846Z,42.13
2022-12-10T08:55:59.296Z,39.88
2022-12-10T08:58:12.936Z,29.77
2022-12-10T09:00:17.586Z,26.25
2022-12-10T09:02:22.532Z,26.98
2022-12-10T09:04:26.186Z,23.50
2022-12-10T09:06:29.736Z,25.27
2022-12-10T09:08:33.687Z,23.42
2022-12-10T09:10:39.679Z,27.90
2022-12-10T09:12:42.428Z,28.85
2022-12-10T09:14:45.447Z,30.50
2022-12-10T09:16:48.201Z,26.98
2022-12-10T09:18:50.858Z,25.40
2022-12-10T09:20:53.426Z,25.88
2022-12-10T09:22:55.887Z,21.15
2022-12-10T09:24:58.805Z,20.58
2022-12-10T09:27:02.602Z,19.15
2022-12-10T09:29:05.146Z,17.73
2022-12-10T09:31:16.265Z,17.27
2022-12-10T09:33:20.476Z,17.30
2022-12-10T09:35:23.306Z,18.98
2022-12-10T09:37:48.408Z,17.75
2022-12-10T09:40:14.541Z,17.85
2022-12-10T09:42:31.980Z,19.60
2022-12-10T09:45:02.558Z,18.85
2022-12-10T09:47:09.647Z,18.85
2022-12-10T09:49:54.317Z,19.08
2022-12-10T09:52:00.516Z,18.42
2022-12-10T09:54:06.346Z,18.38
2022-12-10T09:56:23.166Z,16.60
2022-12-10T09:58:30.308Z,18.88
2022-12-10T10:00:41.101Z,19.65
2022-12-10T10:02:43.642Z,21.10
2022-12-10T10:04:46.287Z,21.17
2022-12-10T10:06:49.389Z,19.85
2022-12-10T10:08:58.026Z,19.35
2022-12-10T10:11:02.846Z,16.52
2022-12-10T10:13:26.247Z,17.38
2022-12-10T10:15:34.778Z,18.38
2022-12-10T10:39:19.878Z,35.28
2022-12-10T10:41:24.563Z,38.60
2022-12-10T10:43:47.276Z,39.25
2022-12-10T10:45:53.969Z,43.42
2022-12-10T10:48:17.865Z,42.35
2022-12-10T10:50:27.507Z,41.05
2022-12-10T10:52:40.378Z,40.67
2022-12-10T10:54:45.513Z,37.47
2022-12-10T10:56:48.387Z,36.17
2022-12-10T10:59:00.878Z,36.50
2022-12-10T11:01:07.223Z,39.65
2022-12-10T11:03:09.817Z,39.72
2022-12-10T11:05:25.872Z,40.88
2022-12-10T11:07:39.807Z,38.17
2022-12-10T11:09:42.687Z,36.00
2022-12-10T11:11:52.685Z,37.00
2022-12-10T11:13:55.546Z,41.67
2022-12-10T11:16:01.568Z,41.28
2022-12-10T11:18:22.516Z,41.00
2022-12-10T11:20:35.102Z,43.03
2022-12-10T11:22:56.389Z,37.35
2022-12-10T11:25:01.408Z,35.78
2022-12-10T11:27:06.756Z,39.38
2022-12-10T11:29:38.898Z,36.28
2022-12-10T11:32:14.875Z,32.15
2022-12-10T11:34:44.796Z,32.33
2022-12-10T11:37:22.926Z,32.72
2022-12-10T11:39:40.359Z,29.17
2022-12-10T11:42:09.026Z,28.65
2022-12-10T11:44:44.345Z,30.60
2022-12-10T11:46:59.976Z,30.42
2022-12-10T11:49:02.714Z,29.95
2022-12-10T11:51:20.137Z,29.08
2022-12-10T11:53:47.485Z,30.67
2022-12-10T11:55:58.299Z,29.30
2022-12-10T11:58:34.467Z,29.30
2022-12-10T12:01:06.495Z,28.98
2022-12-10T12:03:52.879Z,28.83
2022-12-10T12:06:27.506Z,29.67
2022-12-10T12:08:44.866Z,28.23
2022-12-10T12:11:03.097Z,26.65
2022-12-10T12:13:29.866Z,30.13
2022-12-10T12:15:52.705Z,29.08
2022-12-10T12:18:23.433Z,28.58
2022-12-10T12:20:49.317Z,29.67
2022-12-10T12:23:02.138Z,27.60
2022-12-10T12:25:18.725Z,28.35
2022-12-10T12:27:29.198Z,29.55
2022-12-10T12:29:53.437Z,28.65
2022-12-10T12:32:12.211Z,29.65
2022-12-10T12:34:28.718Z,29.50
2022-12-10T12:36:35.734Z,29.45
2022-12-10T12:38:54.928Z,28.15
2022-12-10T12:41:11.246Z,28.10
2022-12-10T12:43:44.065Z,29.23
2022-12-10T12:48:40.185Z,28.92
2022-12-10T12:50:45.457Z,27.83
2022-12-10T12:52:58.466Z,28.02
2022-12-10T12:55:07.294Z,27.60
2022-12-10T12:57:25.129Z,30.02
2022-12-10T12:59:44.326Z,31.30
2022-12-10T13:01:59.702Z,31.40
2022-12-10T13:04:05.106Z,30.25
2022-12-10T13:06:35.198Z,35.30
2022-12-10T13:08:51.297Z,33.60
2022-12-10T13:11:19.945Z,34.17
2022-12-10T13:13:30.611Z,34.72
2022-12-10T13:15:39.929Z,33.63
2022-12-10T13:18:05.077Z,32.53
2022-12-10T13:20:34.333Z,31.08
2022-12-10T13:22:42.626Z,33.97
2022-12-10T13:24:49.105Z,34.55
2022-12-10T13:27:13.057Z,40.05
2022-12-10T13:29:44.546Z,38.80
2022-12-10T13:32:06.215Z,34.40
2022-12-10T13:34:31.765Z,33.90
2022-12-10T13:36:34.160Z,31.13
2022-12-10T13:39:00.436Z,31.30
2022-12-10T13:41:26.818Z,30.13
2022-12-10T13:43:53.373Z,32.33
2022-12-10T13:46:23.199Z,30.85
2022-12-10T13:48:36.455Z,33.03
2022-12-10T13:51:14.127Z,36.85
2022-12-10T13:53:17.360Z,39.13
2022-12-10T13:55:47.827Z,38.97
2022-12-10T13:58:00.748Z,42.70
2022-12-10T14:41:08.909Z,77.88
2022-12-10T14:43:40.326Z,88.25
2022-12-10T14:46:02.608Z,83.40
2022-12-10T14:48:09.618Z,89.47
2022-12-10T14:50:18.057Z,94.90
2022-12-10T14:52:23.857Z,95.75
2022-12-10T14:54:36.086Z,89.57
2022-12-10T14:56:43.948Z,89.97
2022-12-10T14:59:03.468Z,93.78
2022-12-10T15:01:08.438Z,87.47
2022-12-10T15:03:12.972Z,84.15
2022-12-10T15:05:36.887Z,75.55
2022-12-10T15:07:41.658Z,68.32
2022-12-10T15:09:44.706Z,58.60
2022-12-10T15:11:53.987Z,56.10
2022-12-10T15:14:07.666Z,44.20
2022-12-10T15:16:22.003Z,52.95
2022-12-10T15:18:39.995Z,58.53
2022-12-10T15:20:51.577Z,62.53
2022-12-10T15:22:55.017Z,59.35
2022-12-10T15:24:57.607Z,58.13
2022-12-10T15:27:00.096Z,59.90
2022-12-10T15:29:27.985Z,57.38
2022-12-10T15:31:33.987Z,55.53
2022-12-10T15:34:01.015Z,52.08
2022-12-10T15:36:07.345Z,52.88
2022-12-10T15:38:14.345Z,56.72
2022-12-10T17:29:12.867Z,82.70
2022-12-10T17:31:17.923Z,92.63
2022-12-10T17:33:24.499Z,90.32
2022-12-10T17:35:27.426Z,90.95
2022-12-10T17:37:33.198Z,93.47
2022-12-10T17:39:35.856Z,87.93
2022-12-10T17:41:39.127Z,94.25
2022-12-10T17:43:41.996Z,92.18
2022-12-10T17:45:46.784Z,90.70
2022-12-10T17:47:51.269Z,91.35
2022-12-10T17:49:54.977Z,92.53
2022-12-10T17:52:00.295Z,89.68
2022-12-10T17:54:02.947Z,97.68
2022-12-10T17:56:11.946Z,96.38
2022-12-10T17:58:14.657Z,97.95
2022-12-10T18:00:21.327Z,96.70
2022-12-10T18:02:24.697Z,99.72
2022-12-10T18:04:27.827Z,102.82
2022-12-10T18:06:32.107Z,106.68
2022-12-10T18:08:35.176Z,104.50
2022-12-10T18:10:38.697Z,102.85
2022-12-10T18:12:41.358Z,103.07
2022-12-10T18:14:44.465Z,105.43
2022-12-10T18:16:48.031Z,108.50
2022-12-10T18:18:50.673Z,102.22
2022-12-10T18:20:53.327Z,107.50
2022-12-10T18:22:56.877Z,102.80
2022-12-10T18:24:59.576Z,96.13
2022-12-10T18:27:02.846Z,97.30
2022-12-10T18:29:05.550Z,91.57
2022-12-10T18:31:13.920Z,87.93
2022-12-10T18:33:18.636Z,85.75
2022-12-10T18:35:21.667Z,97.25
2022-12-10T18:37:23.976Z,95.75
2022-12-10T18:39:35.038Z,92.43
2022-12-10T18:41:37.697Z,90.43
2022-12-10T18:43:40.206Z,90.25
2022-12-10T18:45:42.814Z,91.03
2022-12-10T18:47:45.667Z,99.32
2022-12-10T18:49:48.356Z,85.97
2022-12-10T18:51:51.352Z,82.60
2022-12-10T18:53:53.916Z,80.57
2022-12-10T18:55:56.456Z,75.97
2022-12-10T18:58:06.253Z,76.65
2022-12-10T19:00:17.939Z,75.75
2022-12-10T19:02:20.503Z,76.88
2022-12-10T19:04:23.336Z,78.70
2022-12-10T19:06:29.138Z,85.40
2022-12-10T19:08:34.482Z,91.05
2022-12-10T19:10:47.656Z,89.95
2022-12-10T19:12:50.497Z,84.95
2022-12-10T19:14:53.458Z,94.28
2022-12-10T19:16:56.025Z,88.03
2022-12-10T19:19:02.307Z,91.72
2022-12-10T19:21:04.987Z,99.45
2022-12-10T19:23:08.338Z,109.40
2022-12-10T19:25:11.315Z,106.93
2022-12-10T19:27:14.067Z,102.13
2022-12-10T19:29:19.911Z,103.47
2022-12-10T19:31:23.707Z,97.50
2022-12-10T19:33:26.257Z,95.18
2022-12-10T19:35:29.516Z,95.82
2022-12-10T19:37:32.256Z,100.32
2022-12-10T19:39:36.137Z,99.90
2022-12-10T19:41:45.626Z,100.90
2022-12-10T19:43:49.018Z,95.65
2022-12-10T19:45:51.794Z,95.07
2022-12-10T19:47:58.487Z,95.80
2022-12-10T19:50:02.067Z,91.13
2022-12-10T19:52:05.067Z,89.38
2022-12-10T19:54:07.808Z,102.55
2022-12-10T19:56:22.705Z,110.05
2022-12-10T19:58:26.845Z,103.88
2022-12-10T20:00:33.666Z,109.00
2022-12-10T20:02:36.505Z,93.60
2022-12-10T20:04:39.466Z,90.13
2022-12-10T20:06:44.108Z,94.22
2022-12-10T20:08:46.766Z,92.78
2022-12-10T20:10:50.967Z,92.18
2022-12-10T20:12:54.168Z,91.80
2022-12-10T20:14:56.517Z,93.78
2022-12-10T20:16:59.067Z,94.68
2022-12-10T20:19:01.526Z,93.85
2022-12-10T20:21:03.977Z,97.40
2022-12-10T20:23:07.887Z,98.43
2022-12-10T20:25:12.329Z,95.20
